Flight Track Log - Related Links

Times and Time Zones

All times are in EDT time to prevent confusion due to time zone crossing. See the AWI3767 flight status page for this flight to view local times or setup timezone preferences in your user account.

Time Position Orientation Groundspeed Altitude Reporting Facility
EDT Latitude Longitude Course Direction KTS MPH feet Rate Location/Type
Sat 09:41:42 AM 39.8667 -75.2833 311° West 163 188 800  Level Philadelphia TRACON
Sat 09:42:54 AM 39.8333 -75.3667 243° Southwest 215 247 3,300 2,136 Climbing Philadelphia TRACON
Sat 09:43:54 AM 39.8167 -75.4500 255° West 262 302 5,500 2,331 Climbing Philadelphia TRACON
Sat 09:44:00 AM 40.0723 -75.4223 323° Northwest  Level FlightAware Approximate
Sat 09:44:55 AM 39.8000 -75.5333 255° West 278 320 8,000  Level Philadelphia TRACON
Sat 09:45:00 AM 40.1423 -75.4923 323° Northwest  Level FlightAware Approximate
Sat 09:45:55 AM 39.8667 -75.5500 349° North 266 306 10,600  Level Philadelphia TRACON
Sat 09:46:00 AM 40.2156 -75.5500 North  Level FlightAware Approximate
Sat 09:46:55 AM 39.9500 -75.5500 360° North 267 307 12,900  Level Philadelphia TRACON
Sat 09:47:00 AM 40.2740 -75.6358 311° West  Level FlightAware Approximate
Sat 09:47:55 AM 40.0333 -75.5667 351° North 338 389 13,100  Level Philadelphia TRACON
Sat 09:48:57 AM 40.1267 -75.5597 North 333 383 13,000 -50 Descending New York Center
Sat 09:49:55 AM 40.2036 -75.5650 357° North 345 397 13,000 908 Level New York Center
Sat 09:50:56 AM 40.2794 -75.6492 320° Northwest 328 377 14,800 1,765 Climbing New York Center
Sat 09:51:54 AM 40.3383 -75.7378 311° West 314 361 16,500 1,613 Climbing New York Center
Sat 09:52:55 AM 40.3992 -75.8264 312° West 319 367 18,000 1,100 Climbing New York Center
Sat 09:53:54 AM 40.4467 -75.9308 301° West 333 383 18,700 706 Climbing New York Center
Sat 09:54:54 AM 40.4628 -76.0414 281° West 333 383 19,400 3,620 Climbing New York Center
Sat 09:55:55 AM 40.4858 -76.1767 283° West 348 400 26,000 1,000 Climbing New York Center
Sat 09:56:54 AM 40.5033 -76.2928 281° West 354 407 21,400 -1,916 Descending New York Center
Sat 09:57:54 AM 40.5222 -76.4228 281° West 359 413 22,200 738 Climbing New York Center
Sat 09:58:56 AM 40.5431 -76.5528 282° West 359 413 22,900 1,450 Climbing New York Center
Sat 09:59:54 AM 40.5703 -76.6725 287° West 354 407 25,100 1,576 Climbing New York Center
Sat 10:00:54 AM 40.6019 -76.7900 290° West 348 400 26,000 443 Climbing New York Center
Sat 10:01:56 AM 40.6333 -76.9078 289° West 342 394 26,000  Level New York Center
Sat 10:02:54 AM 40.6644 -77.0336 288° West 348 400 26,000  Level New York Center
Sat 10:03:55 AM 40.6975 -77.1544 290° West 353 406 26,000  Level New York Center
Sat 10:04:56 AM 40.7303 -77.2781 289° West 353 406 26,000  Level New York Center
Sat 10:06:06 AM 40.7722 -77.4283 290° West 357 411 26,000  Level Cleveland Center
Sat 10:07:08 AM 40.8050 -77.5519 289° West 357 411 26,000  Level Cleveland Center
Sat 10:08:10 AM 40.8361 -77.6778 288° West 360 414 26,000  Level Cleveland Center
Sat 10:09:11 AM 40.8683 -77.8014 289° West 361 415 26,000  Level Cleveland Center
Sat 10:10:13 AM 40.9058 -77.9531 288° West 361 415 26,000  Level Cleveland Center
Sat 10:11:15 AM 40.9306 -78.0814 284° West 361 415 26,000  Level Cleveland Center
Sat 10:12:16 AM 40.9514 -78.2100 282° West 361 415 26,000  Level Cleveland Center
Sat 10:13:18 AM 40.9747 -78.3464 283° West 361 415 26,000  Level Cleveland Center
Sat 10:14:20 AM 40.9953 -78.4772 282° West 362 417 26,000  Level Cleveland Center
Sat 10:15:22 AM 41.0189 -78.6114 283° West 373 429 26,000  Level Cleveland Center
Sat 10:16:24 AM 41.0386 -78.7422 281° West 371 427 26,000  Level Cleveland Center
Sat 10:17:25 AM 41.0597 -78.8736 282° West 370 426 26,000  Level Cleveland Center
Sat 10:18:27 AM 41.0817 -79.0058 282° West 368 423 26,000  Level Cleveland Center
Sat 10:19:29 AM 41.1142 -79.1614 286° West 368 423 26,000  Level Cleveland Center
Sat 10:20:31 AM 41.1400 -79.2906 285° West 367 422 26,000  Level Cleveland Center
Sat 10:21:32 AM 41.1675 -79.4217 286° West 369 425 26,000  Level Cleveland Center
Sat 10:22:34 AM 41.1956 -79.5511 286° West 368 423 26,000  Level Cleveland Center
Sat 10:23:36 AM 41.2225 -79.6828 285° West 367 422 26,000 -242 Level Cleveland Center
Sat 10:24:38 AM 41.2494 -79.8136 285° West 370 426 25,500 -823 Descending Cleveland Center
Sat 10:25:40 AM 41.2817 -79.9728 285° West 373 429 24,300 -726 Descending Cleveland Center
Sat 10:26:42 AM 41.3089 -80.1067 285° West 375 432 24,000 -1,113 Descending Cleveland Center
Sat 10:27:44 AM 41.3350 -80.2367 285° West 376 433 22,000 -2,081 Descending Cleveland Center
Sat 10:28:46 AM 41.3631 -80.3728 285° West 357 411 19,700 -1,951 Descending Cleveland Center
Sat 10:29:47 AM 41.3867 -80.4961 284° West 347 399 18,000 -1,854 Descending Cleveland Center
Sat 10:30:49 AM 41.4114 -80.6208 285° West 346 398 15,900 -2,143 Descending Cleveland Center
Sat 10:31:39 AM 41.4344 -80.7336 285° West 343 395 14,000 -2,032 Descending Cleveland Center
Sat 10:31:51 AM 41.4364 -80.7431 285° West 345 397 13,800 -2,250 Descending Cleveland Center
Sat 10:32:27 AM 41.4531 -80.8367 283° West 340 391 12,200 -2,032 Descending Cleveland Center
Sat 10:32:53 AM 41.4597 -80.8656 287° West 344 396 11,700 -1,726 Descending Cleveland Center
Sat 10:33:40 AM 41.4794 -80.9717 284° West 332 382 10,100 -1,645 Descending Cleveland Center
Sat 10:33:55 AM 41.4869 -81.0025 288° West 330 380 10,000  Descending Cleveland Center
Sat 10:34:41 AM 41.4994 -81.0806 282° West 300 345 10,100  Climbing Cleveland Center
Sat 10:34:57 AM 41.5014 -81.1125 275° West 307 353 10,000 -100 Descending Cleveland Center
Sat 10:35:41 AM 41.5033 -81.2067 272° West 315 362 10,000  Level Cleveland Center
Sat 10:35:59 AM 41.5053 -81.2303 276° West 314 361 10,000 -885 Level Cleveland Center
Sat 10:36:42 AM 41.5072 -81.3078 272° West 274 315 9,100 -1,355 Descending Cleveland Center
Sat 10:37:01 AM 41.5097 -81.3300 279° West 274 315 8,600 -2,000 Descending Cleveland Center
Sat 10:37:36 AM 41.5117 -81.4006 272° West 260 299 7,300 -1,839 Descending Cleveland Center
Sat 10:38:03 AM 41.5125 -81.4303 272° West 270 311 6,700 -1,770 Descending Cleveland Center
Sat 10:38:37 AM 41.5158 -81.4961 274° West 263 303 5,500 -1,645 Descending Cleveland Center
Sat 10:39:05 AM 41.5169 -81.5269 273° West 266 306 5,000 -1,254 Descending Cleveland Center
Sat 10:39:44 AM 41.5192 -81.5972 272° West 255 293 4,100 -968 Descending Cleveland Center
Sat 10:40:07 AM 41.5200 -81.6306 272° West 247 284 4,000 -333 Descending Cleveland Center
Sat 10:40:38 AM 41.5214 -81.6675 273° West 188 216 3,800 -581 Descending Cleveland Center
Sat 10:41:09 AM 41.5133 -81.6964 250° West 202 232 3,400 -689 Descending Cleveland Center
Sat 10:41:39 AM 41.4950 -81.7247 229° Southwest 179 206 3,100 -677 Descending Cleveland Center
Sat 10:42:11 AM 41.4803 -81.7469 229° Southwest 187 215 2,700 -787 Descending Cleveland Center
Sat 10:42:40 AM 41.4633 -81.7728 229° Southwest 170 196 2,300 -774 Descending Cleveland Center
Sat 10:43:13 AM 41.4500 -81.7944 231° Southwest 175 201 1,900 -818 Descending Cleveland Center
Sat 10:43:46 AM 41.4314 -81.8233 229° Southwest 152 175 1,400 -774 Descending Cleveland Center
Sat 10:44:15 AM 41.4239 -81.8364 233° Southwest 158 182 1,100 -621 Descending Cleveland Center
Sat 10:46:00 AM 41.4000 -81.8500 252° West  Level FlightAware Approximate

Login

Don't have an account? Register now (free) for customized features, flight alerts, and more!